createdAt,value
2023-01-21T00:02:16.115Z,10.53
2023-01-21T00:04:43.576Z,10.73
2023-01-21T00:07:10.753Z,10.67
2023-01-21T00:09:38.727Z,10.30
2023-01-21T00:12:06.081Z,11.70
2023-01-21T00:14:33.474Z,10.10
2023-01-21T00:17:00.839Z,10.77
2023-01-21T00:19:29.637Z,10.83
2023-01-21T00:21:56.953Z,10.73
2023-01-21T00:24:24.918Z,10.03
2023-01-21T00:26:53.442Z,10.43
2023-01-21T00:29:21.840Z,11.50
2023-01-21T00:31:49.302Z,10.10
2023-01-21T00:34:16.592Z,11.27
2023-01-21T00:36:44.097Z,10.73
2023-01-21T00:39:11.430Z,10.77
2023-01-21T00:41:38.902Z,11.20
2023-01-21T00:44:06.899Z,11.97
2023-01-21T00:46:34.164Z,10.77
2023-01-21T00:49:01.534Z,11.57
2023-01-21T00:51:31.113Z,11.97
2023-01-21T00:53:58.429Z,11.73
2023-01-21T00:56:25.969Z,12.00
2023-01-21T00:59:12.240Z,11.97
2023-01-21T01:01:40.576Z,10.70
2023-01-21T01:04:07.843Z,10.17
2023-01-21T01:06:35.373Z,11.53
2023-01-21T01:09:02.670Z,11.50
2023-01-21T01:11:30.737Z,10.63
2023-01-21T01:13:59.194Z,12.30
2023-01-21T01:16:26.469Z,11.43
2023-01-21T01:18:53.745Z,12.83
2023-01-21T01:21:21.856Z,13.03
2023-01-21T01:23:51.951Z,12.50
2023-01-21T01:26:19.891Z,12.47
2023-01-21T01:28:47.380Z,12.70
2023-01-21T01:31:16.381Z,13.20
2023-01-21T01:33:43.661Z,13.30
2023-01-21T01:36:15.519Z,14.07
2023-01-21T01:38:43.378Z,13.90
2023-01-21T01:41:14.498Z,13.37
2023-01-21T01:43:52.945Z,13.40
2023-01-21T01:46:20.779Z,13.27
2023-01-21T01:48:51.237Z,13.17
2023-01-21T01:51:20.686Z,13.43
2023-01-21T01:53:48.313Z,13.43
2023-01-21T01:56:16.444Z,13.93
2023-01-21T01:58:44.602Z,15.30
2023-01-21T02:01:11.920Z,14.03
2023-01-21T02:03:50.665Z,14.63
2023-01-21T02:06:19.408Z,14.23
2023-01-21T02:08:47.318Z,14.60
2023-01-21T02:11:15.711Z,14.13
2023-01-21T02:13:44.482Z,14.97
2023-01-21T02:16:26.081Z,15.83
2023-01-21T02:19:03.878Z,15.37
2023-01-21T02:21:46.964Z,15.10
2023-01-21T02:24:23.231Z,13.47
2023-01-21T02:27:29.839Z,14.27
2023-01-21T02:30:17.178Z,13.87
2023-01-21T02:33:09.928Z,14.23
2023-01-21T02:35:44.548Z,14.23
2023-01-21T02:38:14.585Z,14.73
2023-01-21T02:40:56.423Z,14.50
2023-01-21T02:43:29.581Z,14.00
2023-01-21T02:46:03.888Z,14.03
2023-01-21T02:48:35.738Z,13.53
2023-01-21T02:51:03.200Z,13.63
2023-01-21T02:53:31.591Z,13.50
2023-01-21T02:56:02.141Z,12.47
2023-01-21T02:58:31.489Z,13.57
2023-01-21T03:01:14.733Z,13.27
2023-01-21T03:04:02.300Z,13.20
2023-01-21T03:06:37.075Z,12.23
2023-01-21T03:09:16.586Z,11.17
2023-01-21T03:11:46.926Z,12.43
2023-01-21T03:14:35.905Z,10.70
2023-01-21T03:17:09.320Z,9.83
2023-01-21T03:19:39.507Z,10.30
2023-01-21T03:22:10.001Z,10.50
2023-01-21T03:24:38.920Z,10.30
2023-01-21T03:27:10.207Z,9.53
2023-01-21T03:29:39.977Z,10.33
2023-01-21T03:32:09.764Z,10.20
2023-01-21T03:34:42.014Z,9.87
2023-01-21T03:37:15.518Z,9.43
2023-01-21T03:39:48.944Z,10.53
2023-01-21T03:42:17.624Z,10.67
2023-01-21T03:44:45.959Z,10.83
2023-01-21T03:47:36.706Z,11.23
2023-01-21T03:50:04.311Z,10.97
2023-01-21T03:52:32.100Z,10.70
2023-01-21T03:54:59.390Z,11.23
2023-01-21T03:57:26.852Z,11.27
2023-01-21T03:59:54.362Z,11.67
2023-01-21T04:02:21.639Z,11.20
2023-01-21T04:04:49.471Z,11.20
2023-01-21T04:07:17.034Z,10.37
2023-01-21T04:09:44.306Z,12.47
2023-01-21T04:12:11.648Z,11.70
2023-01-21T04:14:38.936Z,11.37
2023-01-21T04:17:06.189Z,11.20
2023-01-21T04:19:33.442Z,11.50
2023-01-21T04:22:00.691Z,10.70
2023-01-21T04:24:28.042Z,10.80
2023-01-21T04:26:55.340Z,11.30
2023-01-21T04:29:22.827Z,10.70
2023-01-21T04:31:50.101Z,12.07
2023-01-21T04:34:17.442Z,12.03
2023-01-21T04:36:44.746Z,12.17
2023-01-21T04:39:11.947Z,12.60
2023-01-21T04:41:39.185Z,12.73
2023-01-21T04:44:06.482Z,12.63
2023-01-21T04:46:33.722Z,12.53
2023-01-21T04:49:01.098Z,12.97
2023-01-21T04:51:28.427Z,12.23
2023-01-21T04:53:55.748Z,13.00
2023-01-21T04:56:23.014Z,12.63
2023-01-21T04:58:50.215Z,12.67
2023-01-21T05:01:17.530Z,12.00
2023-01-21T05:03:44.769Z,11.13
2023-01-21T05:06:11.988Z,11.27
2023-01-21T05:08:39.289Z,10.90
2023-01-21T05:11:09.377Z,11.10
2023-01-21T05:13:36.765Z,10.77
2023-01-21T05:16:09.892Z,10.87
2023-01-21T05:18:38.179Z,10.20
2023-01-21T05:21:05.741Z,9.63
2023-01-21T05:23:33.061Z,9.37
2023-01-21T05:26:00.237Z,9.23
2023-01-21T05:28:27.652Z,10.03
2023-01-21T05:30:55.049Z,10.07
2023-01-21T05:33:26.207Z,10.63
2023-01-21T05:35:53.713Z,9.83
2023-01-21T05:38:20.902Z,10.00
2023-01-21T05:40:48.197Z,11.17
2023-01-21T05:43:15.467Z,11.30
2023-01-21T05:45:42.776Z,10.97
2023-01-21T05:48:09.930Z,11.67
2023-01-21T05:50:38.499Z,11.87
2023-01-21T05:53:05.733Z,11.93
2023-01-21T05:55:33.009Z,13.40
2023-01-21T05:58:00.442Z,11.77
2023-01-21T06:00:27.666Z,12.17
2023-01-21T06:02:54.907Z,12.53
2023-01-21T06:05:22.115Z,13.17
2023-01-21T06:07:50.658Z,12.63
2023-01-21T06:10:18.124Z,13.03
2023-01-21T06:12:45.635Z,12.53
2023-01-21T06:15:14.010Z,12.90
2023-01-21T06:17:41.332Z,13.57
2023-01-21T06:20:09.083Z,12.87
2023-01-21T06:22:36.332Z,12.33
2023-01-21T06:25:03.823Z,12.50
2023-01-21T06:27:31.006Z,13.00
2023-01-21T06:29:58.251Z,14.10
2023-01-21T06:32:25.584Z,13.93
2023-01-21T06:34:52.793Z,14.43
2023-01-21T06:37:20.342Z,12.90
2023-01-21T06:39:47.565Z,13.80
2023-01-21T06:42:14.794Z,12.80
2023-01-21T06:44:42.095Z,12.53
2023-01-21T06:47:09.499Z,12.27
2023-01-21T06:49:36.871Z,12.43
2023-01-21T06:52:04.244Z,12.63
2023-01-21T06:54:31.527Z,12.27
2023-01-21T06:56:58.865Z,11.30
2023-01-21T06:59:26.146Z,11.07
2023-01-21T07:01:53.603Z,11.47
2023-01-21T07:04:20.890Z,11.57
2023-01-21T07:06:48.146Z,10.87
2023-01-21T07:09:15.465Z,11.83
2023-01-21T07:11:42.652Z,11.13
2023-01-21T07:14:09.915Z,11.27
2023-01-21T07:16:37.832Z,10.87
2023-01-21T07:19:05.169Z,11.23
2023-01-21T07:21:32.368Z,11.87
2023-01-21T07:24:00.953Z,15.77
2023-01-21T07:26:28.215Z,16.07
2023-01-21T07:28:55.811Z,11.00
2023-01-21T07:31:23.150Z,11.03
2023-01-21T07:33:50.632Z,11.40
2023-01-21T07:36:18.267Z,10.97
2023-01-21T07:38:45.466Z,11.53
2023-01-21T07:41:12.746Z,11.67
2023-01-21T07:43:40.030Z,11.03
2023-01-21T07:46:07.349Z,10.30
2023-01-21T07:48:34.584Z,10.93
2023-01-21T07:51:01.939Z,11.33
2023-01-21T07:53:29.206Z,11.17
2023-01-21T07:55:56.430Z,11.60
2023-01-21T07:58:23.695Z,11.50
2023-01-21T08:00:50.953Z,11.03
2023-01-21T08:03:21.791Z,11.03
2023-01-21T08:05:50.909Z,11.03
2023-01-21T08:08:18.381Z,11.03
2023-01-21T08:10:45.753Z,10.93
2023-01-21T08:13:12.943Z,10.87
2023-01-21T08:15:40.181Z,11.17
2023-01-21T08:18:07.387Z,11.60
2023-01-21T08:20:34.657Z,10.67
2023-01-21T08:23:02.051Z,11.57
2023-01-21T08:25:29.314Z,11.73
2023-01-21T08:27:56.661Z,22.87
2023-01-21T08:30:23.892Z,26.27
2023-01-21T08:32:51.147Z,13.90
2023-01-21T08:35:18.592Z,11.27
2023-01-21T08:37:46.047Z,11.93
2023-01-21T08:40:13.458Z,11.47
2023-01-21T08:42:40.857Z,11.83
2023-01-21T08:45:08.686Z,10.63
2023-01-21T08:47:36.021Z,11.10
2023-01-21T08:50:03.549Z,11.23
2023-01-21T08:52:31.011Z,10.70
2023-01-21T08:54:58.279Z,11.30
2023-01-21T08:57:25.500Z,11.50
2023-01-21T08:59:53.135Z,11.40
2023-01-21T09:02:20.438Z,12.13
2023-01-21T09:04:47.810Z,11.57
2023-01-21T09:07:15.100Z,11.43
2023-01-21T09:09:42.391Z,12.00
2023-01-21T09:12:09.673Z,12.30
2023-01-21T09:14:36.900Z,12.57
2023-01-21T09:17:04.318Z,11.97
2023-01-21T09:19:31.772Z,11.50
2023-01-21T09:21:59.083Z,12.00
2023-01-21T09:24:27.276Z,11.97
2023-01-21T09:26:55.429Z,12.17
2023-01-21T09:29:22.697Z,12.37
2023-01-21T09:31:49.977Z,12.47
2023-01-21T09:34:17.293Z,11.70
2023-01-21T09:36:44.593Z,12.03
2023-01-21T09:39:11.890Z,12.00
2023-01-21T09:41:40.333Z,11.53
2023-01-21T09:44:10.818Z,11.70
2023-01-21T09:46:50.929Z,11.50
2023-01-21T09:49:41.668Z,11.60
2023-01-21T09:52:27.535Z,12.17
2023-01-21T09:54:55.840Z,14.40
2023-01-21T09:57:48.842Z,17.50
2023-01-21T10:00:34.893Z,12.00
2023-01-21T10:03:03.155Z,12.20
2023-01-21T10:05:39.228Z,10.37
2023-01-21T10:08:27.728Z,11.23
2023-01-21T10:11:12.040Z,12.07
2023-01-21T10:13:56.217Z,11.37
2023-01-21T10:16:42.616Z,11.03
2023-01-21T10:19:14.680Z,12.47
2023-01-21T10:21:48.343Z,12.13
2023-01-21T10:24:17.220Z,11.57
2023-01-21T10:26:45.609Z,11.90
2023-01-21T10:29:20.107Z,11.40
2023-01-21T10:32:02.066Z,11.40
2023-01-21T10:34:33.363Z,11.23
2023-01-21T10:37:12.885Z,12.10
2023-01-21T10:39:45.090Z,11.33
2023-01-21T10:42:31.455Z,10.13
2023-01-21T10:45:01.604Z,11.70
2023-01-21T10:47:47.364Z,11.77
2023-01-21T10:50:18.074Z,10.93
2023-01-21T10:52:48.197Z,11.60
2023-01-21T10:55:24.931Z,11.03
2023-01-21T10:58:03.730Z,11.00
2023-01-21T11:00:37.154Z,10.70
2023-01-21T11:03:09.264Z,10.67
2023-01-21T11:05:38.119Z,10.57
2023-01-21T11:08:05.434Z,11.27
2023-01-21T11:10:32.984Z,11.27
2023-01-21T11:13:00.299Z,10.87
2023-01-21T11:15:30.780Z,10.50
2023-01-21T11:17:58.986Z,10.50
2023-01-21T11:20:31.487Z,10.90
2023-01-21T11:22:58.769Z,10.67
2023-01-21T11:25:35.577Z,11.60
2023-01-21T11:28:03.669Z,10.83
2023-01-21T11:30:49.620Z,10.50
2023-01-21T11:33:28.876Z,10.50
2023-01-21T11:35:57.710Z,10.10
2023-01-21T11:38:34.889Z,10.07
2023-01-21T11:41:13.996Z,11.30
2023-01-21T11:43:43.062Z,10.00
2023-01-21T11:46:31.002Z,10.43
2023-01-21T11:49:18.230Z,11.67
2023-01-21T11:51:46.164Z,11.00
2023-01-21T11:54:13.679Z,11.23
2023-01-21T11:56:43.332Z,12.17
2023-01-21T11:59:23.345Z,11.63
2023-01-21T12:01:56.445Z,12.07
2023-01-21T12:04:24.155Z,11.10
2023-01-21T12:06:54.940Z,10.73
2023-01-21T12:09:22.556Z,11.13
2023-01-21T12:12:04.658Z,10.87
2023-01-21T12:14:41.248Z,10.97
2023-01-21T12:17:16.963Z,11.47
2023-01-21T12:20:03.139Z,11.13
2023-01-21T12:22:35.822Z,10.93
2023-01-21T12:25:03.089Z,10.87
2023-01-21T12:27:45.678Z,10.27
2023-01-21T12:30:13.004Z,10.93
2023-01-21T12:32:43.305Z,10.90
2023-01-21T12:35:13.890Z,11.53
2023-01-21T12:37:48.356Z,10.40
2023-01-21T12:40:18.689Z,10.83
2023-01-21T12:42:50.311Z,10.40
2023-01-21T12:45:21.155Z,10.83
2023-01-21T12:47:54.918Z,10.77
2023-01-21T12:50:25.176Z,10.30
2023-01-21T12:53:10.834Z,13.77
2023-01-21T12:55:47.932Z,13.07
2023-01-21T12:58:16.575Z,11.37
2023-01-21T13:00:46.245Z,9.57
2023-01-21T13:03:16.316Z,10.57
2023-01-21T13:05:53.340Z,10.47
2023-01-21T13:08:39.815Z,10.97
2023-01-21T13:11:14.065Z,11.47
2023-01-21T13:14:04.529Z,10.60
2023-01-21T13:16:32.814Z,9.90
2023-01-21T13:19:00.528Z,10.47
2023-01-21T13:21:42.808Z,9.97
2023-01-21T13:24:10.084Z,10.57
2023-01-21T13:26:37.401Z,11.23
2023-01-21T13:29:16.626Z,11.20
2023-01-21T13:31:43.970Z,10.70
2023-01-21T13:34:21.599Z,10.10
2023-01-21T13:37:07.810Z,10.33
2023-01-21T13:39:35.430Z,10.80
2023-01-21T13:42:28.721Z,10.33
2023-01-21T13:45:05.380Z,10.67
2023-01-21T13:47:47.517Z,10.63
2023-01-21T13:50:33.696Z,11.77
2023-01-21T13:53:19.577Z,11.00
2023-01-21T13:55:58.918Z,11.37
2023-01-21T13:58:41.713Z,11.07
2023-01-21T14:01:16.166Z,11.43
2023-01-21T14:03:54.279Z,11.03
2023-01-21T14:06:25.689Z,11.47
2023-01-21T14:08:57.268Z,10.70
2023-01-21T14:11:24.478Z,11.33
2023-01-21T14:13:54.624Z,12.57
2023-01-21T14:16:25.089Z,10.77
2023-01-21T14:18:58.967Z,10.93
2023-01-21T14:21:43.213Z,11.43
2023-01-21T14:24:10.509Z,10.63
2023-01-21T14:26:48.190Z,11.37
2023-01-21T14:29:34.498Z,13.07
2023-01-21T14:32:14.161Z,13.20
2023-01-21T14:34:47.085Z,11.33
2023-01-21T14:37:24.684Z,10.10
2023-01-21T14:40:21.472Z,11.30
2023-01-21T14:42:49.884Z,11.60
2023-01-21T14:45:22.253Z,10.83
2023-01-21T14:47:51.573Z,10.50
2023-01-21T14:50:37.319Z,10.93
2023-01-21T14:53:10.891Z,10.37
2023-01-21T14:58:24.199Z,11.77
2023-01-21T15:00:52.236Z,9.80
2023-01-21T15:06:17.485Z,10.10
2023-01-21T15:08:47.263Z,9.40
2023-01-21T15:11:27.957Z,9.33
2023-01-21T15:14:11.197Z,10.30
2023-01-21T15:16:45.505Z,10.80
2023-01-21T15:19:14.580Z,10.50
2023-01-21T15:21:44.745Z,9.63
2023-01-21T15:24:47.265Z,9.73
2023-01-21T15:27:20.403Z,9.67
2023-01-21T15:30:00.667Z,10.03
2023-01-21T15:32:31.185Z,9.57
2023-01-21T15:35:12.056Z,9.80
2023-01-21T15:37:40.597Z,9.40
2023-01-21T15:40:15.180Z,10.30
2023-01-21T15:43:03.267Z,9.47
2023-01-21T15:45:48.924Z,9.87
2023-01-21T15:48:41.405Z,9.63
2023-01-21T15:51:15.905Z,9.23
2023-01-21T15:53:46.301Z,9.77
2023-01-21T15:56:18.520Z,9.33
2023-01-21T15:58:58.719Z,9.33
2023-01-21T16:01:37.263Z,8.87
2023-01-21T16:04:11.612Z,9.77
2023-01-21T16:06:50.237Z,10.03
2023-01-21T16:09:36.214Z,10.53
2023-01-21T16:12:03.461Z,9.40
2023-01-21T16:14:40.169Z,8.87
2023-01-21T16:17:07.379Z,8.80
2023-01-21T16:19:37.940Z,9.50
2023-01-21T16:22:07.663Z,8.93
2023-01-21T16:24:38.676Z,8.70
2023-01-21T16:27:19.445Z,8.17
2023-01-21T16:29:46.934Z,7.40
2023-01-21T16:32:20.584Z,7.93
2023-01-21T16:34:48.362Z,7.40
2023-01-21T16:37:23.848Z,7.83
2023-01-21T16:39:54.136Z,7.63
2023-01-21T16:42:41.459Z,7.77
2023-01-21T16:45:10.305Z,6.87
2023-01-21T16:47:37.812Z,6.53
2023-01-21T16:50:05.604Z,7.50
2023-01-21T16:52:32.983Z,6.83
2023-01-21T16:55:00.235Z,6.43
2023-01-21T16:57:31.766Z,6.37
2023-01-21T17:00:02.250Z,6.70
2023-01-21T17:02:33.822Z,6.13
2023-01-21T17:05:04.558Z,6.33
2023-01-21T17:07:34.204Z,6.40
2023-01-21T17:10:21.797Z,6.37
2023-01-21T17:12:52.861Z,6.30
2023-01-21T17:15:25.689Z,6.50
2023-01-21T17:17:55.527Z,6.30
2023-01-21T17:20:38.235Z,5.53
2023-01-21T17:23:07.941Z,6.07
2023-01-21T17:25:36.922Z,5.83
2023-01-21T17:28:17.056Z,6.00
2023-01-21T17:30:45.043Z,5.90
2023-01-21T17:33:27.594Z,6.00
2023-01-21T17:36:15.594Z,5.93
2023-01-21T17:38:47.482Z,5.90
2023-01-21T17:41:29.069Z,18.17
2023-01-21T17:43:57.007Z,11.27
2023-01-21T17:46:25.290Z,18.17
2023-01-21T17:48:54.513Z,4.97
2023-01-21T17:51:24.335Z,4.43
2023-01-21T17:53:55.484Z,4.70
2023-01-21T17:56:42.475Z,5.03
2023-01-21T17:59:28.655Z,4.57
2023-01-21T18:01:56.441Z,4.47
2023-01-21T18:04:24.085Z,4.10
2023-01-21T18:06:52.701Z,4.17
2023-01-21T18:09:20.978Z,3.90
2023-01-21T18:11:49.245Z,3.63
2023-01-21T18:14:18.268Z,3.63
2023-01-21T18:16:46.036Z,3.90
2023-01-21T18:19:30.386Z,3.50
2023-01-21T18:21:58.143Z,2.93
2023-01-21T18:24:25.686Z,3.70
2023-01-21T18:26:53.523Z,3.17
2023-01-21T18:29:21.798Z,3.07
2023-01-21T18:31:52.124Z,3.60
2023-01-21T18:34:19.566Z,3.40
2023-01-21T18:36:46.938Z,3.67
2023-01-21T18:39:16.669Z,3.60
2023-01-21T18:41:44.051Z,15.57
2023-01-21T18:44:11.324Z,5.43
2023-01-21T18:46:43.343Z,7.90
2023-01-21T18:49:20.447Z,3.80
2023-01-21T18:51:48.215Z,3.40
2023-01-21T18:54:16.290Z,3.00
2023-01-21T18:56:44.059Z,3.13
2023-01-21T18:59:13.731Z,3.00
2023-01-21T19:01:41.532Z,3.20
2023-01-21T19:04:09.750Z,3.33
2023-01-21T19:06:37.620Z,3.30
2023-01-21T19:09:05.098Z,3.07
2023-01-21T19:11:32.666Z,3.13
2023-01-21T19:13:59.935Z,3.30
2023-01-21T19:16:27.461Z,2.67
2023-01-21T19:18:54.732Z,3.10
2023-01-21T19:21:22.398Z,3.00
2023-01-21T19:23:50.606Z,2.77
2023-01-21T19:26:18.324Z,2.87
2023-01-21T19:28:45.903Z,3.07
2023-01-21T19:31:13.434Z,3.03
2023-01-21T19:33:43.109Z,3.33
2023-01-21T19:36:16.076Z,3.47
2023-01-21T19:38:47.348Z,3.03
2023-01-21T19:41:14.682Z,3.30
2023-01-21T19:43:42.139Z,3.10
2023-01-21T19:46:11.389Z,3.60
2023-01-21T19:48:38.834Z,3.30
2023-01-21T19:51:06.526Z,3.83
2023-01-21T19:53:33.953Z,3.60
2023-01-21T19:56:01.580Z,3.30
2023-01-21T19:58:30.347Z,3.37
2023-01-21T20:00:57.724Z,3.67
2023-01-21T20:03:26.625Z,3.43
2023-01-21T20:05:59.575Z,3.47
2023-01-21T20:08:28.323Z,3.50
2023-01-21T20:10:55.585Z,3.50
2023-01-21T20:13:23.063Z,3.50
2023-01-21T20:15:51.839Z,3.17
2023-01-21T20:18:26.662Z,3.97
2023-01-21T20:20:54.683Z,3.57
2023-01-21T20:23:22.870Z,3.90
2023-01-21T20:25:51.684Z,4.03
2023-01-21T20:28:20.698Z,4.10
2023-01-21T20:30:48.768Z,4.03
2023-01-21T20:33:17.637Z,3.50
2023-01-21T20:35:47.246Z,3.67
2023-01-21T20:38:15.750Z,3.50
2023-01-21T20:40:43.101Z,4.00
2023-01-21T20:43:10.728Z,3.83
2023-01-21T20:45:56.774Z,3.73
2023-01-21T20:48:28.863Z,3.43
2023-01-21T20:50:56.867Z,3.73
2023-01-21T20:53:24.198Z,3.80
2023-01-21T20:55:51.995Z,3.83
2023-01-21T20:58:22.057Z,3.60
2023-01-21T21:00:50.276Z,3.90
2023-01-21T21:03:18.291Z,3.97
2023-01-21T21:05:49.632Z,3.90
2023-01-21T21:08:22.137Z,3.67
2023-01-21T21:10:52.928Z,3.73
2023-01-21T21:13:20.276Z,4.00
2023-01-21T21:15:47.954Z,4.13
2023-01-21T21:18:15.303Z,4.07
2023-01-21T21:20:42.914Z,4.07
2023-01-21T21:23:13.745Z,4.40
2023-01-21T21:25:42.527Z,4.23
2023-01-21T21:28:17.180Z,4.33
2023-01-21T21:30:44.728Z,4.30
2023-01-21T21:33:17.707Z,3.83
2023-01-21T21:35:46.673Z,4.30
2023-01-21T21:38:17.843Z,3.73
2023-01-21T21:40:46.605Z,4.20
2023-01-21T21:43:35.004Z,4.30
2023-01-21T21:46:24.989Z,4.50
2023-01-21T21:48:52.710Z,4.50
2023-01-21T21:51:22.519Z,4.80
2023-01-21T21:53:50.376Z,4.10
2023-01-21T21:56:19.240Z,4.67
2023-01-21T21:58:47.232Z,4.00
2023-01-21T22:01:18.889Z,4.13
2023-01-21T22:03:46.883Z,4.23
2023-01-21T22:06:14.378Z,4.30
2023-01-21T22:08:42.782Z,4.27
2023-01-21T22:11:11.959Z,4.20
2023-01-21T22:13:40.336Z,4.60
2023-01-21T22:16:08.845Z,4.03
2023-01-21T22:18:36.448Z,4.43
2023-01-21T22:21:07.851Z,4.17
2023-01-21T22:23:36.942Z,4.20
2023-01-21T22:26:08.546Z,4.33
2023-01-21T22:28:36.298Z,4.07
2023-01-21T22:31:08.127Z,4.20
2023-01-21T22:33:54.902Z,4.13
2023-01-21T22:36:23.621Z,7.90
2023-01-21T22:38:51.404Z,26.33
2023-01-21T22:41:21.875Z,5.17
2023-01-21T22:43:49.996Z,3.67
2023-01-21T22:46:19.509Z,4.17
2023-01-21T22:48:46.974Z,3.50
2023-01-21T22:51:15.799Z,4.30
2023-01-21T22:53:46.183Z,4.47
2023-01-21T22:56:14.778Z,3.97
2023-01-21T22:58:42.218Z,3.90
2023-01-21T23:01:09.841Z,4.43
2023-01-21T23:03:37.816Z,4.20
2023-01-21T23:06:06.318Z,4.20
2023-01-21T23:08:34.018Z,4.03
2023-01-21T23:11:02.408Z,4.17
2023-01-21T23:13:30.297Z,4.03
2023-01-21T23:15:57.815Z,3.73
2023-01-21T23:18:26.932Z,4.00
2023-01-21T23:20:54.235Z,4.47
2023-01-21T23:23:21.986Z,4.10
2023-01-21T23:25:49.617Z,4.73
2023-01-21T23:28:17.681Z,4.47
2023-01-21T23:30:45.000Z,4.60
2023-01-21T23:33:13.014Z,4.53
2023-01-21T23:35:40.241Z,4.07
2023-01-21T23:38:07.634Z,4.53
2023-01-21T23:40:35.108Z,4.53
2023-01-21T23:43:02.349Z,4.53
2023-01-21T23:45:29.606Z,4.80
2023-01-21T23:47:56.827Z,4.53
2023-01-21T23:50:24.159Z,5.10
2023-01-21T23:52:51.489Z,5.00
2023-01-21T23:55:18.769Z,4.50
2023-01-21T23:57:45.941Z,5.27
